Time;durP1;ratioP1;P1;durP2;ratioP2;P2;SDS_P1;SDS_P2;PMS_P1;PMS_P2;Temp;Humidity;BMP_temperature;BMP_pressure;BME280_temperature;BME280_humidity;BME280_pressure;Samples;Min_cycle;Max_cycle;Signal;HPM_P1;HPM_P2
2023/05/21 05:42:57;;;;;;;;;;;;;;;;;;5806844;22;20005;-87
2023/05/21 05:45:22;;;;;;;;;;;;;;;;;;5005295;28;20380;-88
2023/05/21 05:47:47;;;;;;;;;;;;;;;;;;5002694;28;20278;-84
2023/05/21 05:50:13;;;;;;;;;;;;;;;;;;5016507;28;20390;-85
2023/05/21 05:52:38;;;;;;;;;;;;;;;;;;5006131;28;20020;-86
2023/05/21 05:55:04;;;;;;;;;;;;;;;;;;4996903;28;19925;-88
2023/05/21 05:57:29;;;;;;;;;;;;;;;;;;4979334;28;19914;-85
2023/05/21 05:59:55;;;;;;;;;;;;;;;;;;4979012;28;19923;-86
2023/05/21 06:02:20;;;;;;;;;;;;;;;;;;4979460;28;20004;-86
2023/05/21 06:04:45;;;;;;;;;;;;;;;;;;4996579;28;19996;-86
2023/05/21 06:07:11;;;;;;;;;;;;;;;;;;4996863;28;19917;-85
2023/05/21 06:09:37;;;;;;;;;;;;;;;;;;4996729;28;19960;-86
2023/05/21 06:12:03;;;;;;;;;;;;;;;;;;4997034;28;19961;-86
2023/05/21 06:14:29;;;;;;;;;;;;;;;;;;4996472;28;19914;-85
2023/05/21 06:16:54;;;;;;;;;;;;;;;;;;4996916;28;20385;-84
2023/05/21 06:19:19;;;;;;;;;;;;;;;;;;4996938;28;19914;-84
2023/05/21 09:03:42;;;;;;;8.45;7.65;;;;;;;;;;5012994;28;20049;-86
2023/05/21 09:06:12;;;;;;;9.70;7.68;;;;;;;;;;5006123;28;20404;-86
2023/05/21 09:08:43;;;;;;;9.95;7.90;;;;;;;;;;4995994;28;20034;-85
2023/05/21 09:11:08;;;;;;;8.43;7.63;;;;;;;;;;5009417;28;20022;-85
2023/05/21 09:13:36;;;;;;;8.48;7.65;;;;;;;;;;5017210;28;20385;-85
2023/05/21 09:16:02;;;;;;;8.13;7.38;;;;;;;;;;5016751;28;20034;-86
2023/05/21 09:18:27;;;;;;;8.18;7.18;;;;;;;;;;5014349;28;20037;-85
2023/05/21 09:20:52;;;;;;;9.95;7.63;;;;;;;;;;4997951;28;20026;-90
2023/05/21 09:23:18;;;;;;;8.93;7.85;;;;;;;;;;4997323;28;20037;-89
2023/05/21 09:25:46;;;;;;;9.70;8.60;;;;;;;;;;4997196;28;20062;-86
2023/05/21 09:28:13;;;;;;;10.02;8.65;;;;;;;;;;4997580;28;20073;-87
2023/05/21 09:30:48;;;;;;;8.80;7.55;;;;;;;;;;4996770;28;20469;-86
2023/05/21 09:33:24;;;;;;;9.35;8.32;;;;;;;;;;4997143;28;20099;-90
2023/05/21 09:35:50;;;;;;;9.85;8.52;;;;;;;;;;4997128;28;20515;-86
2023/05/21 09:38:16;;;;;;;9.18;8.18;;;;;;;;;;4997050;28;20026;-86
2023/05/21 16:36:37;;;;;;;;;;;;;;;;;;5439336;22;19921;-88
2023/05/21 16:39:02;;;;;;;;;;;;;;;;;;4998062;28;20037;-87
2023/05/21 16:41:28;;;;;;;;;;;;;;;;;;4999004;28;19952;-86
2023/05/21 16:43:53;;;;;;;;;;;;;;;;;;4998932;28;20291;-84
2023/05/21 16:46:19;;;;;;;;;;;;;;;;;;4998917;28;19914;-86
2023/05/21 16:48:44;;;;;;;;;;;;;;;;;;4999043;28;20288;-87
2023/05/21 16:51:10;;;;;;;;;;;;;;;;;;4980962;28;19910;-85
2023/05/21 16:53:35;;;;;;;;;;;;;;;;;;4981097;28;19913;-85
2023/05/21 16:56:01;;;;;;;;;;;;;;;;;;4999118;28;19921;-87
2023/05/21 16:58:26;;;;;;;;;;;;;;;;;;5001146;28;20007;-87
2023/05/21 17:00:51;;;;;;;;;;;;;;;;;;4998729;28;20379;-85
2023/05/21 17:03:17;;;;;;;;;;;;;;;;;;4997795;28;19921;-83
2023/05/21 17:05:42;;;;;;;;;;;;;;;;;;4998226;28;20000;-83
2023/05/21 17:08:07;;;;;;;;;;;;;;;;;;4998286;28;19964;-82
2023/05/21 17:10:33;;;;;;;;;;;;;;;;;;4998601;28;19913;-82
2023/05/21 17:12:58;;;;;;;;;;;;;;;;;;4997873;28;19913;-83
2023/05/21 17:15:24;;;;;;;;;;;;;;;;;;4997844;28;19984;-83
2023/05/21 17:17:50;;;;;;;;;;;;;;;;;;4997864;28;19965;-82
2023/05/21 17:20:15;;;;;;;;;;;;;;;;;;4997805;28;20312;-84
2023/05/21 17:22:40;;;;;;;;;;;;;;;;;;4997743;28;20445;-84
2023/05/21 17:25:06;;;;;;;;;;;;;;;;;;4997676;28;19914;-84
2023/05/21 17:27:31;;;;;;;;;;;;;;;;;;4996788;28;19917;-84
2023/05/21 17:29:57;;;;;;;;;;;;;;;;;;4997286;28;20365;-83
2023/05/21 17:32:22;;;;;;;;;;;;;;;;;;4997194;28;19920;-81
2023/05/21 17:34:47;;;;;;;;;;;;;;;;;;4997128;28;20026;-83
2023/05/21 17:37:13;;;;;;;;;;;;;;;;;;4997377;28;19918;-84
2023/05/21 17:39:38;;;;;;;;;;;;;;;;;;4997471;28;20347;-84
2023/05/21 17:42:03;;;;;;;;;;;;;;;;;;4979740;28;20336;-85
2023/05/21 17:44:29;;;;;;;;;;;;;;;;;;4996961;28;20369;-86
2023/05/21 17:46:55;;;;;;;;;;;;;;;;;;4979374;28;19918;-85
2023/05/21 17:49:21;;;;;;;;;;;;;;;;;;4996857;28;20284;-84
2023/05/21 17:51:46;;;;;;;;;;;;;;;;;;4996907;28;19918;-85
2023/05/21 17:54:12;;;;;;;;;;;;;;;;;;4979701;28;19925;-84
2023/05/21 17:56:38;;;;;;;;;;;;;;;;;;4997271;28;20312;-85
2023/05/21 17:59:06;;;;;;;;;;;;;;;;;;4997091;28;19914;-85
2023/05/21 18:01:35;;;;;;;;;;;;;;;;;;4996976;28;19967;-85
2023/05/21 18:04:02;;;;;;;;;;;;;;;;;;4996801;28;19921;-85
2023/05/21 18:06:27;;;;;;;;;;;;;;;;;;4996750;28;19917;-85
2023/05/21 18:08:53;;;;;;;;;;;;;;;;;;4996839;28;19920;-85
2023/05/21 18:11:19;;;;;;;;;;;;;;;;;;4997042;28;19914;-87
2023/05/21 18:13:44;;;;;;;;;;;;;;;;;;4979725;28;19924;-82
2023/05/21 18:16:09;;;;;;;;;;;;;;;;;;4996888;28;20008;-81
2023/05/21 18:18:35;;;;;;;;;;;;;;;;;;4996677;28;20444;-81
2023/05/21 18:21:00;;;;;;;;;;;;;;;;;;4996605;28;19924;-81
2023/05/21 18:23:25;;;;;;;;;;;;;;;;;;4996740;28;19996;-81
2023/05/21 18:25:51;;;;;;;;;;;;;;;;;;4996729;28;20372;-82
2023/05/21 18:28:16;;;;;;;;;;;;;;;;;;4996531;28;19913;-82
2023/05/21 18:30:41;;;;;;;;;;;;;;;;;;4996567;28;19920;-82
2023/05/21 18:33:07;;;;;;;;;;;;;;;;;;4996636;28;20353;-82
2023/05/21 18:35:32;;;;;;;;;;;;;;;;;;4978566;28;19944;-83
2023/05/21 18:37:57;;;;;;;;;;;;;;;;;;4996020;28;20288;-81
2023/05/21 18:40:25;;;;;;;;;;;;;;;;;;4996255;28;19918;-81
2023/05/21 18:42:50;;;;;;;;;;;;;;;;;;4996324;28;20288;-82
2023/05/21 18:45:16;;;;;;;;;;;;;;;;;;4996323;28;19918;-82
2023/05/21 18:47:41;;;;;;;;;;;;;;;;;;4996300;28;19918;-82
2023/05/21 18:50:11;;;;;;;;;;;;;;;;;;4995957;28;20071;-81
2023/05/21 18:52:36;;;;;;;;;;;;;;;;;;4996016;28;19925;-82
2023/05/21 18:55:02;;;;;;;;;;;;;;;;;;4996233;28;19917;-81
2023/05/21 18:57:27;;;;;;;;;;;;;;;;;;4996030;28;19918;-82
2023/05/21 18:59:52;;;;;;;;;;;;;;;;;;4995900;28;20273;-82
2023/05/21 19:02:18;;;;;;;;;;;;;;;;;;4995289;28;20029;-82
2023/05/21 19:04:43;;;;;;;;;;;;;;;;;;4995116;28;20348;-81
2023/05/21 19:07:08;;;;;;;;;;;;;;;;;;4995102;28;19918;-82
2023/05/21 19:09:34;;;;;;;;;;;;;;;;;;4996106;28;19921;-82
2023/05/21 19:11:59;;;;;;;;;;;;;;;;;;4978330;28;20369;-82
2023/05/21 19:14:25;;;;;;;;;;;;;;;;;;4978093;28;20280;-81
2023/05/21 19:16:50;;;;;;;;;;;;;;;;;;4995687;28;19964;-82
2023/05/21 19:19:15;;;;;;;;;;;;;;;;;;4995446;28;19934;-82
2023/05/21 19:21:41;;;;;;;;;;;;;;;;;;4995868;28;19923;-82
2023/05/21 19:24:06;;;;;;;;;;;;;;;;;;4995422;28;19922;-81
2023/05/21 19:26:31;;;;;;;;;;;;;;;;;;4995342;28;19917;-83
2023/05/21 19:28:57;;;;;;;;;;;;;;;;;;4977504;28;19918;-83
2023/05/21 19:31:23;;;;;;;;;;;;;;;;;;4995536;28;19918;-82
2023/05/21 19:33:49;;;;;;;;;;;;;;;;;;4995077;28;19961;-81
2023/05/21 19:36:14;;;;;;;;;;;;;;;;;;4995413;28;20277;-81
2023/05/21 19:38:49;;;;;;;;;;;;;;;;;;4995057;28;20289;-81
2023/05/21 19:41:15;;;;;;;;;;;;;;;;;;4995218;28;20036;-82
2023/05/21 19:43:40;;;;;;;;;;;;;;;;;;4995059;28;19968;-82
2023/05/21 19:46:05;;;;;;;;;;;;;;;;;;4994938;28;20394;-82
2023/05/21 19:48:31;;;;;;;;;;;;;;;;;;4994951;28;20394;-82
2023/05/21 19:50:56;;;;;;;;;;;;;;;;;;4976957;28;20377;-82
2023/05/21 19:53:22;;;;;;;;;;;;;;;;;;4995136;28;19921;-84
2023/05/21 19:55:47;;;;;;;;;;;;;;;;;;4994973;28;19957;-82
2023/05/21 19:58:15;;;;;;;;;;;;;;;;;;4995154;28;20288;-82
